• Join FlightAware (Why Join?)
  • Login
  • US Flag 
09:37AM EDT


 

Airport Tracker/Info


-or-


 

Live Flight TrackerFlight Track Log ✈ KAP3 ✈ 04-Jun-2013 ✈ KBOS - KMVY

Flight Track Log - Related Links

Times and Time Zones

All times are in EDT time to prevent confusion due to time zone crossing. See the KAP3 flight status page for this flight to view local times or setup timezone preferences in your user account.

Time Position Orientation Groundspeed Altitude Reporting Facility
EDT Latitude Longitude Course Direction KTS MPH feet Rate Location/Type
06:46PM 42.3178 -70.9879 163° South  Level Estimated
06:47PM 42.2727 -70.9694 163° South  Level Estimated
06:48PM 42.2276 -70.9509 163° South  Level Estimated
06:49PM 42.1825 -70.9324 163° South  Level Estimated
06:50PM 42.1373 -70.9139 163° South  Level Estimated
06:51PM 42.0922 -70.8955 163° South  Level Estimated
06:52PM 42.0471 -70.8772 163° South  Level Estimated
06:53PM 42.0019 -70.8588 163° South  Level Estimated
06:54PM 41.9568 -70.8404 163° South  Level Estimated
06:55PM 41.9117 -70.8221 163° South  Level Estimated
06:56PM 41.8665 -70.8039 163° South  Level Estimated
06:57PM 41.8214 -70.7856 163° South  Level Estimated
06:58PM 41.7762 -70.7674 163° South  Level Estimated
06:59PM 41.7310 -70.7492 163° South  Level Estimated
07:00PM 41.6859 -70.7310 163° South  Level Estimated
07:01PM 41.6407 -70.7128 163° South  Level Estimated
07:02PM 41.5956 -70.6947 163° South  Level Estimated
07:03PM 41.5504 -70.6766 163° South  Level Estimated
07:04PM 41.5052 -70.6585 163° South  Level Estimated
07:05PM 41.4600 -70.6405 163° South  Level Estimated
07:06PM 41.4149 -70.6224 163° South  Level Estimated
07:07PM 41.3934 -70.6139 163° South  Level Estimated
07:08PM 41.3934 -70.6139 304° West  Level Estimated
07:09PM 41.3934 -70.6139 304° West  Level Estimated
07:10PM 41.3934 -70.6139 304° West  Level Estimated
07:10PM 42.3667 -71.0167 304° West 116 133 500  Level KA90
07:11PM 41.3934 -70.6139 304° West  Level Estimated
07:11PM 42.3333 -71.0333 200° South 123 142 1,400  Level KA90
07:12PM 41.3934 -70.6139 304° West  Level Estimated
07:13PM 41.3934 -70.6139 304° West  Level Estimated
07:13PM 42.3000 -71.0333 180° South 136 157 2,100  Level KA90
07:14PM 41.3934 -70.6139 304° West  Level Estimated
07:14PM 42.2500 -71.0333 180° South 138 159 2,800  Level KA90
07:15PM 41.3934 -70.6139 304° West  Level Estimated
07:15PM 42.2167 -71.0333 180° South 148 170 3,600  Level KA90
07:15PM 42.1833 -71.0000 143° Southeast 143 165 4,200 720 Climbing KA90
07:16PM 41.3934 -70.6139 304° West  Level Estimated
07:16PM 42.1500 -70.9667 143° Southeast 145 167 5,000  Level KA90
07:18PM 42.1167 -70.9333 143° Southeast 157 181 5,400 -60 Climbing KA90
07:19PM 42.1066 -70.8758 103° East  Level FlightAware Approximate
07:26PM 41.9731 -70.5197 140° Southeast  Level FlightAware Approximate
07:27PM 41.9395 -70.4818 140° Southeast  Level FlightAware Approximate
07:28PM 41.9059 -70.4440 140° Southeast  Level FlightAware Approximate
07:29PM 41.8722 -70.4063 140° Southeast  Level FlightAware Approximate
07:30PM 41.8301 -70.4000 180° South  Level FlightAware Approximate
07:31PM 41.7863 -70.4000 180° South  Level FlightAware Approximate
07:32PM 41.7425 -70.4000 180° South  Level FlightAware Approximate
07:33PM 41.6986 -70.4000 180° South  Level FlightAware Approximate
07:34PM 41.6548 -70.4000 180° South  Level FlightAware Approximate
07:35PM 41.6110 -70.4000 180° South  Level FlightAware Approximate
07:36PM 41.5672 -70.4000 180° South  Level FlightAware Approximate
07:37PM 41.5331 -70.4365 221° Southwest  Level FlightAware Approximate
07:38PM 41.5001 -70.4750 221° Southwest  Level FlightAware Approximate
07:39PM 41.4670 -70.5135 221° Southwest  Level FlightAware Approximate
07:40PM 41.4330 -70.5503 217° Southwest  Level FlightAware Approximate
07:41PM 41.3980 -70.5854 217° Southwest  Level FlightAware Approximate
07:42PM 41.3833 -70.6000 217° Southwest  Level FlightAware Approximate
07:43PM 41.3934 -70.6139 217° Southwest  Level Estimated
07:44PM 41.3934 -70.6139 217° Southwest  Level Estimated
07:45PM 41.3934 -70.6139 217° Southwest  Level Estimated
07:46PM 41.3934 -70.6139 217° Southwest  Level Estimated
07:47PM 41.3934 -70.6139 217° Southwest  Level Estimated
07:48PM 41.3934 -70.6139 217° Southwest  Level Estimated
07:49PM 41.3934 -70.6139 217° Southwest  Level Estimated
07:50PM 41.3934 -70.6139 217° Southwest  Level Estimated
07:51PM 41.3934 -70.6139 217° Southwest  Level Estimated
07:52PM 41.3934 -70.6139 217° Southwest  Level Estimated
07:53PM 41.3934 -70.6139 217° Southwest  Level Estimated
07:53PM 41.7667 -70.7667 360° North 165 190 4,500  Level KA90
07:54PM 41.3934 -70.6139 217° Southwest  Level Estimated
07:55PM 41.3934 -70.6139 217° Southwest  Level Estimated
07:56PM 41.3934 -70.6139 217° Southwest  Level Estimated
07:57PM 41.3934 -70.6139 217° Southwest  Level Estimated
07:58PM 41.3934 -70.6139 217° Southwest  Level Estimated